createdAt,value
2022-11-07T00:01:50.527Z,2.13
2022-11-07T00:04:17.398Z,2.10
2022-11-07T00:06:44.159Z,2.15
2022-11-07T00:09:10.818Z,1.90
2022-11-07T00:11:37.430Z,2.00
2022-11-07T00:14:04.102Z,2.05
2022-11-07T00:16:31.895Z,2.10
2022-11-07T00:18:58.490Z,2.10
2022-11-07T00:21:25.063Z,2.05
2022-11-07T00:23:51.645Z,1.90
2022-11-07T00:26:18.240Z,2.05
2022-11-07T00:28:45.299Z,2.05
2022-11-07T00:31:13.313Z,2.00
2022-11-07T00:33:41.048Z,2.30
2022-11-07T00:36:08.297Z,2.00
2022-11-07T00:38:35.429Z,2.10
2022-11-07T00:41:05.221Z,2.10
2022-11-07T00:43:32.911Z,1.95
2022-11-07T00:46:05.188Z,1.92
2022-11-07T00:48:35.000Z,2.05
2022-11-07T00:51:16.435Z,1.90
2022-11-07T00:53:43.105Z,1.90
2022-11-07T00:56:14.953Z,2.08
2022-11-07T00:58:42.819Z,1.92
2022-11-07T01:01:11.962Z,2.00
2022-11-07T01:03:57.712Z,2.10
2022-11-07T01:06:27.209Z,2.10
2022-11-07T01:08:54.966Z,2.20
2022-11-07T01:11:21.711Z,2.20
2022-11-07T01:13:48.297Z,2.13
2022-11-07T01:16:15.279Z,2.10
2022-11-07T01:18:44.529Z,2.17
2022-11-07T01:21:16.242Z,2.20
2022-11-07T01:24:03.203Z,2.10
2022-11-07T01:31:18.434Z,2.33
2022-11-07T01:33:49.092Z,2.30
2022-11-07T01:36:17.934Z,2.25
2022-11-07T01:38:48.595Z,2.30
2022-11-07T01:41:27.874Z,2.55
2022-11-07T01:44:23.636Z,2.30
2022-11-07T01:46:56.894Z,2.40
2022-11-07T01:49:28.957Z,2.30
2022-11-07T01:52:04.349Z,2.40
2022-11-07T01:54:41.749Z,2.30
2022-11-07T01:57:20.874Z,2.45
2022-11-07T01:59:50.813Z,2.70
2022-11-07T02:02:17.954Z,2.40
2022-11-07T02:04:44.992Z,2.42
2022-11-07T02:07:18.337Z,2.28
2022-11-07T02:09:45.441Z,2.28
2022-11-07T02:12:13.173Z,2.30
2022-11-07T02:14:42.227Z,2.30
2022-11-07T02:17:10.458Z,2.17
2022-11-07T02:19:43.284Z,2.20
2022-11-07T02:22:09.814Z,2.08
2022-11-07T02:24:38.746Z,2.20
2022-11-07T02:27:13.093Z,2.05
2022-11-07T02:29:42.523Z,2.10
2022-11-07T02:32:11.370Z,2.00
2022-11-07T02:34:38.564Z,2.10
2022-11-07T02:37:17.448Z,2.10
2022-11-07T02:39:43.987Z,1.98
2022-11-07T02:42:10.665Z,1.90
2022-11-07T02:44:37.438Z,2.05
2022-11-07T02:47:04.162Z,1.80
2022-11-07T02:49:30.796Z,1.70
2022-11-07T02:51:57.389Z,2.03
2022-11-07T02:54:23.908Z,1.90
2022-11-07T02:56:50.600Z,1.70
2022-11-07T02:59:26.945Z,1.80
2022-11-07T03:01:57.159Z,1.70
2022-11-07T03:04:24.774Z,1.77
2022-11-07T03:06:51.698Z,1.90
2022-11-07T03:09:18.222Z,2.00
2022-11-07T03:11:44.806Z,1.70
2022-11-07T03:14:11.391Z,1.90
2022-11-07T03:16:38.471Z,1.90
2022-11-07T03:19:05.196Z,2.03
2022-11-07T03:21:32.418Z,1.80
2022-11-07T03:23:58.992Z,1.80
2022-11-07T03:26:25.565Z,1.80
2022-11-07T03:28:52.259Z,1.65
2022-11-07T03:31:18.937Z,1.88
2022-11-07T03:33:45.545Z,1.90
2022-11-07T03:36:12.494Z,1.80
2022-11-07T03:38:39.071Z,1.98
2022-11-07T03:41:05.805Z,2.08
2022-11-07T03:43:32.679Z,1.90
2022-11-07T03:46:03.920Z,1.90
2022-11-07T03:48:33.461Z,1.95
2022-11-07T03:51:00.100Z,1.98
2022-11-07T03:53:28.595Z,1.80
2022-11-07T03:55:56.183Z,2.00
2022-11-07T03:58:25.833Z,1.92
2022-11-07T04:00:52.725Z,1.92
2022-11-07T04:03:19.297Z,2.20
2022-11-07T04:05:45.897Z,2.20
2022-11-07T04:08:12.516Z,1.90
2022-11-07T04:10:39.200Z,1.98
2022-11-07T04:13:24.505Z,1.90
2022-11-07T04:16:14.934Z,2.00
2022-11-07T04:18:43.948Z,2.00
2022-11-07T04:21:10.770Z,2.25
2022-11-07T04:23:40.026Z,2.22
2022-11-07T04:26:25.293Z,2.10
2022-11-07T04:28:51.917Z,2.10
2022-11-07T04:31:18.488Z,2.20
2022-11-07T04:33:46.121Z,2.35
2022-11-07T04:36:12.914Z,2.47
2022-11-07T04:38:42.188Z,2.17
2022-11-07T04:41:22.381Z,2.22
2022-11-07T04:43:49.069Z,2.35
2022-11-07T04:46:16.608Z,2.15
2022-11-07T04:48:44.256Z,2.38
2022-11-07T04:51:19.815Z,2.20
2022-11-07T04:53:46.460Z,2.22
2022-11-07T04:56:13.131Z,2.50
2022-11-07T04:58:39.672Z,2.40
2022-11-07T05:01:06.250Z,2.40
2022-11-07T05:03:36.232Z,2.40
2022-11-07T05:06:06.098Z,2.60
2022-11-07T05:08:32.683Z,2.63
2022-11-07T05:10:59.207Z,2.58
2022-11-07T05:13:25.835Z,2.50
2022-11-07T05:15:55.424Z,2.70
2022-11-07T05:18:25.092Z,2.70
2022-11-07T05:20:55.911Z,2.90
2022-11-07T05:23:22.662Z,2.67
2022-11-07T05:25:59.353Z,2.85
2022-11-07T05:28:37.008Z,2.80
2022-11-07T05:31:09.439Z,2.90
2022-11-07T05:33:47.362Z,2.92
2022-11-07T05:36:19.112Z,2.97
2022-11-07T05:38:48.355Z,3.00
2022-11-07T05:41:16.605Z,3.10
2022-11-07T05:43:43.457Z,2.90
2022-11-07T05:46:10.769Z,3.10
2022-11-07T05:48:38.034Z,3.20
2022-11-07T05:51:06.992Z,3.60
2022-11-07T05:53:34.501Z,3.20
2022-11-07T05:56:01.103Z,3.50
2022-11-07T05:58:27.665Z,3.40
2022-11-07T06:00:54.246Z,3.40
2022-11-07T06:03:21.161Z,3.22
2022-11-07T06:05:48.226Z,3.22
2022-11-07T06:08:15.371Z,3.25
2022-11-07T06:10:43.542Z,3.00
2022-11-07T06:13:15.667Z,3.30
2022-11-07T06:15:44.731Z,3.55
2022-11-07T06:18:19.999Z,3.22
2022-11-07T06:20:47.787Z,3.00
2022-11-07T06:23:16.880Z,3.30
2022-11-07T06:25:47.276Z,3.15
2022-11-07T06:28:18.223Z,3.30
2022-11-07T06:33:17.348Z,3.45
2022-11-07T06:35:53.131Z,3.40
2022-11-07T06:38:25.042Z,3.50
2022-11-07T06:40:51.797Z,3.50
2022-11-07T06:43:26.817Z,3.47
2022-11-07T06:46:27.773Z,4.68
2022-11-07T06:49:14.927Z,5.72
2022-11-07T06:51:47.864Z,4.10
2022-11-07T06:57:10.653Z,3.80
2022-11-07T06:59:37.473Z,4.40
2022-11-07T07:02:30.470Z,3.90
2022-11-07T07:05:01.326Z,3.20
2022-11-07T07:07:31.195Z,3.20
2022-11-07T07:09:57.974Z,2.97
2022-11-07T07:12:26.382Z,2.83
2022-11-07T07:14:52.923Z,2.70
2022-11-07T07:17:19.525Z,2.80
2022-11-07T07:19:46.145Z,2.80
2022-11-07T07:22:14.098Z,2.50
2022-11-07T07:24:40.722Z,2.63
2022-11-07T07:27:08.025Z,2.50
2022-11-07T07:29:34.777Z,2.60
2022-11-07T07:32:10.533Z,2.67
2022-11-07T07:34:37.554Z,3.60
2022-11-07T07:37:04.688Z,6.40
2022-11-07T07:39:31.559Z,5.88
2022-11-07T07:41:58.715Z,3.42
2022-11-07T07:44:25.401Z,2.90
2022-11-07T07:46:52.227Z,2.40
2022-11-07T07:49:18.967Z,2.45
2022-11-07T07:51:53.417Z,2.45
2022-11-07T07:54:20.197Z,2.40
2022-11-07T07:56:46.993Z,2.50
2022-11-07T07:59:13.887Z,2.60
2022-11-07T08:01:40.604Z,2.88
2022-11-07T08:04:07.679Z,4.07
2022-11-07T08:06:35.609Z,2.60
2022-11-07T08:09:02.389Z,2.97
2022-11-07T08:11:45.081Z,3.40
2022-11-07T08:14:14.510Z,2.80
2022-11-07T08:16:44.481Z,2.92
2022-11-07T08:19:18.022Z,2.83
2022-11-07T08:25:28.902Z,2.40
2022-11-07T08:28:03.642Z,2.72
2022-11-07T08:30:31.958Z,2.65
2022-11-07T08:33:10.096Z,2.80
2022-11-07T08:35:47.598Z,2.55
2022-11-07T08:40:53.135Z,2.30
2022-11-07T08:43:20.576Z,2.30
2022-11-07T08:45:54.059Z,1.90
2022-11-07T08:48:21.449Z,2.17
2022-11-07T08:51:01.579Z,2.30
2022-11-07T08:54:00.490Z,2.15
2022-11-07T08:56:35.887Z,2.10
2022-11-07T08:59:02.573Z,2.30
2022-11-07T09:02:15.046Z,2.35
2022-11-07T09:04:30.982Z,2.40
2022-11-07T09:06:57.685Z,1.90
2022-11-07T09:09:36.799Z,2.40
2022-11-07T09:12:06.298Z,1.70
2022-11-07T09:14:32.991Z,1.88
2022-11-07T09:16:59.715Z,1.63
2022-11-07T09:19:27.810Z,1.60
2022-11-07T09:22:00.074Z,1.60
2022-11-07T09:24:27.084Z,1.50
2022-11-07T09:26:56.843Z,1.55
2022-11-07T09:29:24.000Z,1.30
2022-11-07T09:31:51.528Z,1.50
2022-11-07T09:34:38.090Z,1.40
2022-11-07T09:37:05.409Z,1.50
2022-11-07T09:39:32.147Z,1.00
2022-11-07T09:45:04.816Z,1.42
2022-11-07T09:47:43.921Z,1.38
2022-11-07T09:50:18.219Z,1.20
2022-11-07T09:53:34.098Z,1.23
2022-11-07T09:56:05.681Z,1.30
2022-11-07T09:58:51.814Z,1.27
2022-11-07T10:01:33.342Z,1.20
2022-11-07T10:07:28.455Z,1.20
2022-11-07T10:11:11.075Z,1.20
2022-11-07T10:13:59.900Z,1.35
2022-11-07T10:16:44.733Z,1.20
2022-11-07T10:19:58.197Z,1.10
2022-11-07T10:23:18.649Z,1.13
2022-11-07T10:26:16.846Z,1.17
2022-11-07T10:29:12.181Z,1.30
2022-11-07T10:31:46.974Z,1.45
2022-11-07T10:34:26.549Z,1.30
2022-11-07T10:36:58.230Z,1.02
2022-11-07T10:40:09.587Z,1.20
2022-11-07T10:42:57.261Z,1.10
2022-11-07T10:45:28.260Z,1.55
2022-11-07T10:48:15.538Z,1.00
2022-11-07T10:50:58.895Z,1.10
2022-11-07T10:56:29.003Z,1.20
2022-11-07T10:59:19.929Z,1.30
2022-11-07T11:02:17.996Z,1.25
2022-11-07T11:16:43.045Z,1.10
2022-11-07T11:19:41.406Z,1.10
2022-11-07T11:22:16.876Z,1.20
2022-11-07T11:24:43.422Z,1.48
2022-11-07T11:27:21.311Z,1.45
2022-11-07T11:29:53.156Z,1.20
2022-11-07T11:32:32.829Z,1.63
2022-11-07T11:35:14.405Z,1.27
2022-11-07T11:37:43.791Z,1.30
2022-11-07T11:40:18.568Z,1.27
2022-11-07T11:42:53.840Z,1.17
2022-11-07T11:45:35.732Z,1.50
2022-11-07T11:48:10.685Z,1.60
2022-11-07T11:50:47.981Z,1.73
2022-11-07T11:53:22.576Z,2.20
2022-11-07T11:56:09.593Z,1.50
2022-11-07T11:58:58.379Z,1.67
2022-11-07T12:02:06.140Z,1.20
2022-11-07T12:04:50.826Z,1.20
2022-11-07T12:07:45.637Z,1.10
2022-11-07T12:10:25.602Z,1.20
2022-11-07T12:12:52.136Z,1.20
2022-11-07T12:15:31.176Z,1.10
2022-11-07T12:18:09.887Z,1.08
2022-11-07T12:21:10.226Z,1.00
2022-11-07T12:23:58.210Z,0.90
2022-11-07T12:26:34.099Z,0.98
2022-11-07T12:29:00.547Z,1.10
2022-11-07T12:31:27.068Z,1.05
2022-11-07T12:34:00.818Z,1.08
2022-11-07T12:36:53.680Z,1.20
2022-11-07T12:39:20.145Z,1.25
2022-11-07T12:41:46.610Z,1.20
2022-11-07T12:44:25.161Z,1.00
2022-11-07T12:46:58.082Z,1.17
2022-11-07T12:49:49.504Z,1.17
2022-11-07T12:52:59.889Z,1.23
2022-11-07T12:55:34.871Z,1.10
2022-11-07T12:58:04.020Z,1.20
2022-11-07T13:00:30.987Z,1.52
2022-11-07T13:03:42.643Z,1.35
2022-11-07T13:06:22.137Z,1.80
2022-11-07T13:09:13.279Z,1.30
2022-11-07T13:12:07.132Z,2.00
2022-11-07T13:14:38.876Z,1.42
2022-11-07T13:17:08.393Z,1.30
2022-11-07T13:19:37.287Z,1.10
2022-11-07T13:22:20.045Z,1.60
2022-11-07T13:24:53.296Z,1.35
2022-11-07T13:27:22.839Z,1.60
2022-11-07T13:29:49.516Z,1.55
2022-11-07T13:32:16.957Z,1.60
2022-11-07T13:34:49.738Z,2.28
2022-11-07T13:37:20.522Z,1.85
2022-11-07T13:39:51.063Z,1.63
2022-11-07T13:42:18.745Z,1.50
2022-11-07T13:44:52.961Z,1.20
2022-11-07T13:47:26.114Z,1.30
2022-11-07T13:49:57.035Z,1.10
2022-11-07T13:52:34.683Z,1.23
2022-11-07T13:55:09.089Z,1.10
2022-11-07T13:57:42.974Z,1.20
2022-11-07T14:00:19.436Z,1.20
2022-11-07T14:02:57.531Z,1.17
2022-11-07T14:05:27.162Z,1.38
2022-11-07T14:08:02.172Z,1.50
2022-11-07T14:10:39.236Z,1.77
2022-11-07T14:13:19.723Z,1.40
2022-11-07T14:15:49.153Z,1.48
2022-11-07T14:18:18.329Z,1.73
2022-11-07T14:20:50.363Z,1.60
2022-11-07T14:23:21.416Z,1.90
2022-11-07T14:25:58.312Z,2.50
2022-11-07T14:28:25.063Z,2.53
2022-11-07T14:30:52.801Z,2.40
2022-11-07T14:33:22.370Z,3.10
2022-11-07T14:35:51.613Z,3.40
2022-11-07T14:38:22.410Z,3.53
2022-11-07T14:40:50.248Z,3.30
2022-11-07T14:43:20.835Z,3.40
2022-11-07T14:46:11.423Z,3.60
2022-11-07T14:48:35.514Z,3.10
2022-11-07T14:51:02.873Z,3.67
2022-11-07T14:53:36.343Z,4.15
2022-11-07T14:56:08.734Z,4.82
2022-11-07T14:58:35.422Z,5.22
2022-11-07T15:01:08.020Z,4.50
2022-11-07T15:03:37.109Z,5.10
2022-11-07T15:06:04.394Z,4.40
2022-11-07T15:08:36.273Z,3.90
2022-11-07T15:11:07.583Z,4.03
2022-11-07T15:13:35.232Z,4.10
2022-11-07T15:16:05.802Z,4.50
2022-11-07T15:18:37.784Z,4.60
2022-11-07T15:21:04.970Z,4.30
2022-11-07T15:23:33.736Z,4.30
2022-11-07T15:26:06.675Z,4.07
2022-11-07T15:28:42.259Z,4.25
2022-11-07T15:31:21.971Z,4.40
2022-11-07T15:33:48.569Z,9.05
2022-11-07T15:36:15.858Z,6.68
2022-11-07T15:38:43.019Z,4.85
2022-11-07T15:41:11.396Z,5.13
2022-11-07T15:43:38.425Z,5.03
2022-11-07T15:46:21.046Z,5.43
2022-11-07T15:48:47.988Z,5.40
2022-11-07T15:51:14.689Z,5.32
2022-11-07T15:53:41.211Z,5.47
2022-11-07T15:56:11.747Z,4.90
2022-11-07T15:58:38.252Z,4.05
2022-11-07T16:01:04.841Z,3.17
2022-11-07T16:03:31.443Z,3.47
2022-11-07T16:06:02.767Z,3.30
2022-11-07T16:08:30.456Z,3.85
2022-11-07T16:11:00.991Z,4.63
2022-11-07T16:13:28.783Z,4.70
2022-11-07T16:16:00.258Z,5.93
2022-11-07T16:18:30.284Z,4.72
2022-11-07T16:25:38.754Z,5.78
2022-11-07T16:28:06.112Z,4.95
2022-11-07T16:30:33.721Z,4.03
2022-11-07T16:33:00.690Z,4.55
2022-11-07T16:35:27.241Z,4.97
2022-11-07T16:37:53.855Z,6.13
2022-11-07T16:40:20.428Z,9.00
2022-11-07T16:42:47.524Z,8.45
2022-11-07T16:45:16.417Z,7.18
2022-11-07T16:47:44.037Z,7.07
2022-11-07T16:50:13.946Z,7.32
2022-11-07T16:52:40.514Z,6.53
2022-11-07T16:55:07.671Z,7.40
2022-11-07T16:57:36.251Z,8.32
2022-11-07T17:00:04.500Z,10.00
2022-11-07T17:02:31.247Z,9.18
2022-11-07T17:04:58.066Z,8.70
2022-11-07T17:07:24.716Z,11.68
2022-11-07T17:09:51.275Z,19.85
2022-11-07T17:12:21.536Z,14.98
2022-11-07T17:14:48.754Z,13.02
2022-11-07T17:17:17.400Z,12.20
2022-11-07T17:19:44.502Z,10.82
2022-11-07T17:22:12.149Z,10.68
2022-11-07T17:24:38.944Z,12.35
2022-11-07T17:27:19.035Z,13.65
2022-11-07T17:29:45.529Z,16.13
2022-11-07T17:32:12.022Z,16.95
2022-11-07T17:34:39.037Z,13.15
2022-11-07T17:37:05.699Z,14.10
2022-11-07T17:39:32.175Z,15.10
2022-11-07T17:41:58.915Z,14.50
2022-11-07T17:44:25.409Z,15.93
2022-11-07T17:46:52.051Z,18.17
2022-11-07T17:49:19.539Z,15.07
2022-11-07T17:51:46.108Z,12.70
2022-11-07T17:54:13.891Z,14.15
2022-11-07T17:56:41.580Z,12.80
2022-11-07T17:59:13.225Z,12.40
2022-11-07T18:01:40.559Z,13.38
2022-11-07T18:04:09.428Z,12.55
2022-11-07T18:06:41.503Z,12.20
2022-11-07T18:09:11.661Z,13.00
2022-11-07T18:11:38.253Z,11.55
2022-11-07T18:14:05.070Z,10.70
2022-11-07T18:16:33.704Z,10.10
2022-11-07T18:19:01.472Z,9.98
2022-11-07T18:21:29.051Z,11.20
2022-11-07T18:23:56.397Z,8.68
2022-11-07T18:26:30.206Z,8.43
2022-11-07T18:29:00.655Z,9.18
2022-11-07T18:31:27.137Z,10.55
2022-11-07T18:33:58.687Z,8.30
2022-11-07T18:36:26.108Z,9.45
2022-11-07T18:38:52.715Z,11.38
2022-11-07T18:41:21.617Z,9.00
2022-11-07T18:43:48.872Z,8.20
2022-11-07T18:46:19.247Z,6.72
2022-11-07T18:48:46.525Z,9.48
2022-11-07T18:51:17.453Z,11.27
2022-11-07T18:53:44.727Z,12.57
2022-11-07T18:56:12.880Z,11.93
2022-11-07T18:58:41.456Z,12.02
2022-11-07T19:01:12.348Z,9.93
2022-11-07T19:03:40.477Z,7.13
2022-11-07T19:06:10.879Z,6.47
2022-11-07T19:08:39.577Z,5.35
2022-11-07T19:11:09.444Z,6.68
2022-11-07T19:13:37.489Z,7.03
2022-11-07T19:16:06.249Z,7.10
2022-11-07T19:18:33.188Z,8.10
2022-11-07T19:21:00.147Z,8.90
2022-11-07T19:23:26.696Z,10.02
2022-11-07T19:25:54.245Z,10.98
2022-11-07T19:28:21.019Z,15.52
2022-11-07T19:30:47.894Z,14.55
2022-11-07T19:33:15.911Z,14.48
2022-11-07T19:35:43.169Z,13.80
2022-11-07T19:38:12.549Z,13.55
2022-11-07T19:40:39.995Z,13.95
2022-11-07T19:43:09.407Z,14.23
2022-11-07T19:45:41.040Z,13.57
2022-11-07T19:48:07.837Z,11.77
2022-11-07T19:50:34.330Z,12.68
2022-11-07T19:53:00.848Z,12.48
2022-11-07T19:55:27.609Z,12.80
2022-11-07T19:57:54.065Z,13.73
2022-11-07T20:00:20.550Z,17.55
2022-11-07T20:02:47.817Z,17.58
2022-11-07T20:05:23.823Z,16.63
2022-11-07T20:08:04.787Z,17.40
2022-11-07T20:10:32.005Z,17.95
2022-11-07T20:12:58.522Z,15.15
2022-11-07T20:15:25.045Z,14.55
2022-11-07T20:17:51.587Z,14.65
2022-11-07T20:20:18.152Z,14.30
2022-11-07T20:22:49.256Z,14.25
2022-11-07T20:25:15.863Z,14.35
2022-11-07T20:27:42.652Z,14.52
2022-11-07T20:30:09.951Z,14.43
2022-11-07T20:32:36.745Z,15.00
2022-11-07T20:35:03.793Z,14.13
2022-11-07T20:37:30.488Z,15.13
2022-11-07T20:39:57.119Z,14.15
2022-11-07T20:42:23.653Z,14.90
2022-11-07T20:44:51.045Z,14.55
2022-11-07T20:47:18.046Z,13.95
2022-11-07T20:49:44.546Z,13.20
2022-11-07T20:52:11.177Z,14.40
2022-11-07T20:54:37.928Z,25.58
2022-11-07T20:57:04.877Z,41.78
2022-11-07T20:59:31.988Z,29.52
2022-11-07T21:02:02.994Z,25.20
2022-11-07T21:04:44.544Z,17.25
2022-11-07T21:07:19.624Z,15.52
2022-11-07T21:09:46.510Z,16.15
2022-11-07T21:12:13.265Z,16.55
2022-11-07T21:14:42.026Z,14.20
2022-11-07T21:17:09.339Z,14.18
2022-11-07T21:19:35.956Z,12.13
2022-11-07T21:22:02.455Z,11.73
2022-11-07T21:24:32.126Z,10.63
2022-11-07T21:26:58.996Z,10.00
2022-11-07T21:29:29.458Z,10.27
2022-11-07T21:31:57.082Z,10.25
2022-11-07T21:34:23.617Z,12.00
2022-11-07T21:36:50.286Z,12.77
2022-11-07T21:39:17.420Z,12.85
2022-11-07T21:41:44.141Z,12.68
2022-11-07T21:44:12.161Z,11.30
2022-11-07T21:46:38.825Z,12.10
2022-11-07T21:49:06.168Z,12.38
2022-11-07T21:51:34.607Z,12.60
2022-11-07T21:54:02.894Z,12.30
2022-11-07T21:56:39.428Z,12.55
2022-11-07T21:59:08.366Z,12.60
2022-11-07T22:01:37.149Z,11.45
2022-11-07T22:04:10.839Z,13.50
2022-11-07T22:06:41.663Z,13.40
2022-11-07T22:09:09.555Z,13.05
2022-11-07T22:11:36.879Z,13.45
2022-11-07T22:14:03.918Z,12.05
2022-11-07T22:16:31.638Z,11.02
2022-11-07T22:18:59.672Z,10.63
2022-11-07T22:21:26.415Z,10.50
2022-11-07T22:23:52.905Z,9.43
2022-11-07T22:26:21.880Z,9.80
2022-11-07T22:28:49.420Z,9.90
2022-11-07T22:31:22.802Z,9.90
2022-11-07T22:33:49.969Z,10.23
2022-11-07T22:36:17.281Z,9.73
2022-11-07T22:38:44.344Z,11.45
2022-11-07T22:41:15.326Z,12.98
2022-11-07T22:43:42.410Z,10.88
2022-11-07T22:46:12.568Z,11.18
2022-11-07T22:48:39.667Z,13.40
2022-11-07T22:51:23.151Z,13.32
2022-11-07T22:53:57.077Z,11.65
2022-11-07T22:56:23.909Z,10.27
2022-11-07T22:58:50.643Z,11.23
2022-11-07T23:01:25.779Z,11.27
2022-11-07T23:03:53.546Z,12.15
2022-11-07T23:06:20.701Z,11.55
2022-11-07T23:08:47.952Z,10.88
2022-11-07T23:11:46.568Z,10.68
2022-11-07T23:14:15.275Z,10.60
2022-11-07T23:16:48.226Z,12.13
2022-11-07T23:19:17.929Z,10.98
2022-11-07T23:21:44.446Z,10.63
2022-11-07T23:24:11.289Z,10.10
2022-11-07T23:26:38.405Z,11.50
2022-11-07T23:29:17.900Z,10.38
2022-11-07T23:31:46.890Z,9.88
2022-11-07T23:34:14.314Z,9.40
2022-11-07T23:36:43.842Z,9.77
2022-11-07T23:39:16.852Z,8.70
2022-11-07T23:41:43.984Z,9.23
2022-11-07T23:44:11.260Z,9.13
2022-11-07T23:46:56.786Z,9.60
2022-11-07T23:49:41.752Z,9.80
2022-11-07T23:52:08.315Z,10.15
2022-11-07T23:54:53.420Z,9.65
2022-11-07T23:57:20.360Z,9.90
